Squirrel Hill, Pennsylvania
Current Conditions -  °F | °C
As of 7:53 PM on Monday 22 Dec 2014 (Local Time) from KAGC Reporting Station
Broken Clouds Broken Clouds  
Wind Chill:   Ceiling: 4200
Heat Index:   Visibility: 8mi
Dew Point: -2°   Wind: 8mph
Humidity: 70%   Direction: 110°ESE
Pressure: 29.97"   Gusts: NA
Location:  40.4306°N, 79.9221°W
Report Text: KAGC 230053Z AUTO 11007KT 8SM FEW030 BKN042 03/M02 A2997 RMK AO2 SLP164 T00331017 TSNO
Loading
Personal Weather Stations






























Interactive Weather Map New forecast layout! Learn more

10-Day Weather Forecast

Advertisements
Track Severe Weather on mobile